Time,TemperatureF,DewpointF,PressureIn,WindDirection,WindDirectionDegrees,WindSpeedMPH,WindSpeedGustMPH,Humidity,HourlyPrecipIn,Conditions,Clouds,dailyrainin,SoftwareType,DateUTC
2013-07-01 00:01:00,79.0,-99.9,29.94,South,185,5.0,12.0,-999,-99.99,,,-99.99,,2013-07-01 04:01:00,
2013-07-01 00:11:00,79.0,-99.9,29.94,South,188,6.0,12.0,-999,-99.99,,,-99.99,,2013-07-01 04:11:00,
2013-07-01 00:32:00,79.0,-99.9,29.94,South,180,9.0,14.0,-999,-99.99,,,-99.99,,2013-07-01 04:32:00,
2013-07-01 00:43:00,79.0,-99.9,29.94,South,181,9.0,14.0,-999,-99.99,,,-99.99,,2013-07-01 04:43:00,
2013-07-01 00:53:00,79.0,-99.9,29.94,South,179,9.0,15.0,-999,-99.99,,,-99.99,,2013-07-01 04:53:00,
2013-07-01 01:02:00,79.0,-99.9,29.94,South,180,7.0,12.0,-999,-99.99,,,-99.99,,2013-07-01 05:02:00,
2013-07-01 01:11:00,79.0,-99.9,29.94,South,183,8.0,12.0,-999,-99.99,,,-99.99,,2013-07-01 05:11:00,
2013-07-01 01:33:00,77.0,-99.9,29.93,South,173,12.0,18.0,-999,-99.99,,,-99.99,,2013-07-01 05:33:00,
2013-07-01 01:42:00,77.0,-99.9,29.93,South,179,13.0,18.0,-999,-99.99,,,-99.99,,2013-07-01 05:42:00,
2013-07-01 01:52:00,78.0,-99.9,29.93,SSE,167,11.0,15.0,-999,-99.99,,,-99.99,,2013-07-01 05:52:00,
2013-07-01 02:02:00,78.0,-99.9,29.94,SSE,167,14.0,21.0,-999,-99.99,,,-99.99,,2013-07-01 06:02:00,
2013-07-01 02:12:00,78.0,-99.9,29.94,South,169,11.0,19.0,-999,-99.99,,,-99.99,,2013-07-01 06:12:00,
2013-07-01 02:24:00,78.0,-99.9,29.94,South,169,11.0,19.0,-999,-99.99,,,-99.99,,2013-07-01 06:24:00,
2013-07-01 02:34:00,78.0,-99.9,29.93,South,180,10.0,18.0,-999,-99.99,,,-99.99,,2013-07-01 06:34:00,
2013-07-01 02:43:00,78.0,-99.9,29.93,South,171,12.0,19.0,-999,-99.99,,,-99.99,,2013-07-01 06:43:00,
2013-07-01 02:53:00,78.0,-99.9,29.93,South,173,12.0,19.0,-999,-99.99,,,-99.99,,2013-07-01 06:53:00,
2013-07-01 03:02:00,78.0,-99.9,29.93,South,171,10.0,17.0,-999,-99.99,,,-99.99,,2013-07-01 07:02:00,
2013-07-01 03:12:00,78.0,-99.9,29.92,South,169,9.0,14.0,-999,-99.99,,,-99.99,,2013-07-01 07:12:00,
2013-07-01 03:33:00,78.0,-99.9,29.92,SSE,165,12.0,14.0,-999,-99.99,,,-99.99,,2013-07-01 07:33:00,
2013-07-01 03:43:00,78.0,-99.9,29.92,SSE,166,9.0,13.0,-999,-99.99,,,-99.99,,2013-07-01 07:43:00,
2013-07-01 03:53:00,78.0,-99.9,29.92,South,176,15.0,19.0,-999,-99.99,,,-99.99,,2013-07-01 07:53:00,
2013-07-01 04:01:00,78.0,-99.9,29.92,South,181,12.0,20.0,-999,-99.99,,,-99.99,,2013-07-01 08:01:00,
2013-07-01 04:12:00,79.0,-99.9,29.92,South,175,14.0,20.0,-999,-99.99,,,-99.99,,2013-07-01 08:12:00,
2013-07-01 04:33:00,79.0,-99.9,29.92,South,169,13.0,18.0,-999,-99.99,,,-99.99,,2013-07-01 08:33:00,
2013-07-01 04:43:00,79.0,-99.9,29.92,South,174,14.0,19.0,-999,-99.99,,,-99.99,,2013-07-01 08:43:00,
2013-07-01 04:52:00,79.0,-99.9,29.92,South,172,12.0,20.0,-999,-99.99,,,-99.99,,2013-07-01 08:52:00,
2013-07-01 05:02:00,79.0,-99.9,29.93,South,175,11.0,18.0,-999,-99.99,,,-99.99,,2013-07-01 09:02:00,
2013-07-01 05:12:00,79.0,-99.9,29.93,South,171,11.0,16.0,-999,-99.99,,,-99.99,,2013-07-01 09:12:00,
2013-07-01 05:34:00,78.0,-99.9,29.94,South,181,10.0,18.0,-999,-99.99,,,-99.99,,2013-07-01 09:34:00,
2013-07-01 05:43:00,78.0,-99.9,29.94,South,187,11.0,18.0,-999,-99.99,,,-99.99,,2013-07-01 09:43:00,
2013-07-01 05:53:00,77.0,-99.9,29.95,South,181,9.0,15.0,-999,-99.99,,,-99.99,,2013-07-01 09:53:00,
2013-07-01 06:03:00,78.0,-99.9,29.95,South,169,10.0,15.0,-999,-99.99,,,-99.99,,2013-07-01 10:03:00,
2013-07-01 06:33:00,74.0,-99.9,29.97,SSW,196,12.0,19.0,-999,-99.99,,,-99.99,,2013-07-01 10:33:00,
2013-07-01 06:43:00,75.0,-99.9,29.97,SSW,198,14.0,21.0,-999,-99.99,,,-99.99,,2013-07-01 10:43:00,
2013-07-01 06:52:00,75.0,-99.9,29.98,SSW,200,12.0,21.0,-999,-99.99,,,-99.99,,2013-07-01 10:52:00,
2013-07-01 07:02:00,75.0,-99.9,29.98,South,187,9.0,17.0,-999,-99.99,,,-99.99,,2013-07-01 11:02:00,
2013-07-01 07:12:00,75.0,-99.9,29.99,South,185,10.0,17.0,-999,-99.99,,,-99.99,,2013-07-01 11:12:00,
2013-07-01 07:34:00,76.0,-99.9,29.99,South,175,16.0,22.0,-999,-99.99,,,-99.99,,2013-07-01 11:34:00,
2013-07-01 07:43:00,76.0,-99.9,29.99,South,179,13.0,23.0,-999,-99.99,,,-99.99,,2013-07-01 11:43:00,
2013-07-01 07:52:00,75.0,-99.9,29.99,South,183,13.0,22.0,-999,-99.99,,,-99.99,,2013-07-01 11:52:00,
2013-07-01 08:01:00,76.0,-99.9,29.99,South,182,9.0,16.0,-999,-99.99,,,-99.99,,2013-07-01 12:01:00,
2013-07-01 08:11:00,76.0,-99.9,29.99,South,183,7.0,16.0,-999,-99.99,,,-99.99,,2013-07-01 12:11:00,
2013-07-01 08:33:00,76.0,-99.9,29.99,South,182,9.0,17.0,-999,-99.99,,,-99.99,,2013-07-01 12:33:00,
2013-07-01 08:43:00,77.0,-99.9,29.99,South,183,9.0,15.0,-999,-99.99,,,-99.99,,2013-07-01 12:43:00,
2013-07-01 08:53:00,78.0,-99.9,30.00,South,184,9.0,14.0,-999,-99.99,,,-99.99,,2013-07-01 12:53:00,
2013-07-01 09:02:00,78.0,-99.9,30.00,South,190,9.0,15.0,-999,-99.99,,,-99.99,,2013-07-01 13:02:00,
2013-07-01 09:33:00,75.0,-99.9,30.01,South,188,12.0,23.0,-999,-99.99,,,-99.99,,2013-07-01 13:33:00,
2013-07-01 10:02:00,75.0,-99.9,30.02,South,171,13.0,24.0,-999,-99.99,,,-99.99,,2013-07-01 14:02:00,
2013-07-01 11:12:00,76.0,-99.9,30.01,South,180,8.0,15.0,-999,-99.99,,,-99.99,,2013-07-01 15:12:00,
2013-07-01 12:11:00,77.0,-99.9,30.03,SSW,201,9.0,13.0,-999,-99.99,,,-99.99,,2013-07-01 16:11:00,
2013-07-01 12:22:00,77.0,-99.9,30.03,SSW,201,9.0,13.0,-999,-99.99,,,-99.99,,2013-07-01 16:22:00,
2013-07-01 12:33:00,77.0,-99.9,30.03,South,183,7.0,13.0,-999,-99.99,,,-99.99,,2013-07-01 16:33:00,
2013-07-01 12:44:00,77.0,-99.9,30.03,South,180,10.0,15.0,-999,-99.99,,,-99.99,,2013-07-01 16:44:00,
2013-07-01 12:53:00,77.0,-99.9,30.03,South,184,9.0,15.0,-999,-99.99,,,-99.99,,2013-07-01 16:53:00,
2013-07-01 13:02:00,77.0,-99.9,30.03,South,174,11.0,15.0,-999,-99.99,,,-99.99,,2013-07-01 17:02:00,
2013-07-01 13:23:00,78.0,-99.9,30.02,SSE,167,9.0,13.0,-999,-99.99,,,-99.99,,2013-07-01 17:23:00,
2013-07-01 13:43:00,79.0,-99.9,30.03,South,169,10.0,15.0,-999,-99.99,,,-99.99,,2013-07-01 17:43:00,
2013-07-01 13:53:00,79.0,-99.9,30.03,SSE,167,13.0,18.0,-999,-99.99,,,-99.99,,2013-07-01 17:53:00,
2013-07-01 14:22:00,79.0,-99.9,30.02,SSE,164,11.0,17.0,-999,-99.99,,,-99.99,,2013-07-01 18:22:00,
2013-07-01 14:44:00,79.0,-99.9,30.02,SSE,160,12.0,19.0,-999,-99.99,,,-99.99,,2013-07-01 18:44:00,
2013-07-01 14:53:00,78.0,-99.9,30.02,SSE,158,13.0,17.0,-999,-99.99,,,-99.99,,2013-07-01 18:53:00,
2013-07-01 15:02:00,76.0,-99.9,30.02,SSE,166,16.0,21.0,-999,-99.99,,,-99.99,,2013-07-01 19:02:00,
2013-07-01 15:44:00,77.0,-99.9,30.02,SSW,199,8.0,14.0,-999,-99.99,,,-99.99,,2013-07-01 19:44:00,
2013-07-01 16:02:00,77.0,-99.9,30.02,SSW,200,12.0,19.0,-999,-99.99,,,-99.99,,2013-07-01 20:02:00,
2013-07-01 16:11:00,77.0,-99.9,30.02,SSW,200,12.0,19.0,-999,-99.99,,,-99.99,,2013-07-01 20:11:00,
2013-07-01 16:34:00,76.0,-99.9,30.03,SSW,192,11.0,20.0,-999,-99.99,,,-99.99,,2013-07-01 20:34:00,
2013-07-01 16:43:00,76.0,-99.9,30.03,SSW,199,12.0,20.0,-999,-99.99,,,-99.99,,2013-07-01 20:43:00,
2013-07-01 17:02:00,76.0,-99.9,30.04,South,186,9.0,16.0,-999,-99.99,,,-99.99,,2013-07-01 21:02:00,
2013-07-01 17:11:00,76.0,-99.9,30.04,South,186,9.0,16.0,-999,-99.99,,,-99.99,,2013-07-01 21:11:00,
2013-07-01 17:44:00,77.0,-99.9,30.03,South,182,6.0,18.0,-999,-99.99,,,-99.99,,2013-07-01 21:44:00,
2013-07-01 17:53:00,77.0,-99.9,30.03,South,182,6.0,18.0,-999,-99.99,,,-99.99,,2013-07-01 21:53:00,
2013-07-01 18:01:00,77.0,-99.9,30.03,South,186,7.0,14.0,-999,-99.99,,,-99.99,,2013-07-01 22:01:00,
2013-07-01 18:24:00,77.0,-99.9,30.04,South,189,7.0,11.0,-999,-99.99,,,-99.99,,2013-07-01 22:24:00,
2013-07-01 18:43:00,78.0,-99.9,30.04,South,184,8.0,13.0,-999,-99.99,,,-99.99,,2013-07-01 22:43:00,
2013-07-01 18:53:00,78.0,-99.9,30.04,South,184,8.0,13.0,-999,-99.99,,,-99.99,,2013-07-01 22:53:00,
2013-07-01 19:11:00,78.0,-99.9,30.04,South,183,8.0,13.0,-999,-99.99,,,-99.99,,2013-07-01 23:11:00,
2013-07-01 19:22:00,78.0,-99.9,30.04,South,177,10.0,13.0,-999,-99.99,,,-99.99,,2013-07-01 23:22:00,
2013-07-01 19:33:00,78.0,-99.9,30.04,South,183,7.0,11.0,-999,-99.99,,,-99.99,,2013-07-01 23:33:00,
2013-07-01 19:44:00,78.0,-99.9,30.04,South,190,6.0,10.0,-999,-99.99,,,-99.99,,2013-07-01 23:44:00,
2013-07-01 19:53:00,78.0,-99.9,30.05,South,181,12.0,16.0,-999,-99.99,,,-99.99,,2013-07-01 23:53:00,
2013-07-01 20:01:00,78.0,-99.9,30.05,South,176,9.0,16.0,-999,-99.99,,,-99.99,,2013-07-02 00:01:00,
2013-07-01 20:12:00,78.0,-99.9,30.05,South,177,10.0,16.0,-999,-99.99,,,-99.99,,2013-07-02 00:12:00,
2013-07-01 20:34:00,78.0,-99.9,30.06,South,183,10.0,18.0,-999,-99.99,,,-99.99,,2013-07-02 00:34:00,
2013-07-01 20:43:00,78.0,-99.9,30.06,South,184,9.0,15.0,-999,-99.99,,,-99.99,,2013-07-02 00:43:00,
2013-07-01 20:53:00,78.0,-99.9,30.06,South,181,10.0,16.0,-999,-99.99,,,-99.99,,2013-07-02 00:53:00,
2013-07-01 21:33:00,78.0,-99.9,30.06,South,185,10.0,16.0,-999,-99.99,,,-99.99,,2013-07-02 01:33:00,
2013-07-01 21:43:00,77.0,-99.9,30.07,South,185,11.0,19.0,-999,-99.99,,,-99.99,,2013-07-02 01:43:00,
2013-07-01 22:12:00,78.0,-99.9,30.07,South,187,8.0,14.0,-999,-99.99,,,-99.99,,2013-07-02 02:12:00,
2013-07-01 22:34:00,78.0,-99.9,30.08,South,183,10.0,20.0,-999,-99.99,,,-99.99,,2013-07-02 02:34:00,
2013-07-01 22:43:00,78.0,-99.9,30.08,South,185,9.0,15.0,-999,-99.99,,,-99.99,,2013-07-02 02:43:00,
2013-07-01 23:12:00,78.0,-99.9,30.09,South,191,9.0,14.0,-999,-99.99,,,-99.99,,2013-07-02 03:12:00,